KYIP

Willow Run

Airport
ICAO code
KYIP
Summary
ICAO Region
NAM
ICAO Territory
Location

Ypsilanti, Michigan,

Coordinates
42° 14' 16" N , 83° 31' 49" W
KCC
Metar
KYIP 181653Z 32009KT 10SM SCT042 22/13 A3014 RMK AO2 SLP201 T02220128

Description

Willow Run Airport is an airport located in Van Buren Charter Township and in Ypsilanti Township, near Ypsilanti, Michigan, that serves freight, corporate, and general aviation clients. No commercial passenger services are available at the airport.

Climatology

Humid continental climate (Köppen climate classification Dfa) - characterized by four seasons: cold, windy, snowy winters, mild springs, hot, humid summers, and crisp and relatively short autumns. Precipitation reaches its lowest in January and February and peaks in summer and latter half of spring.

Runways

Designator Length Width Surface Rops
09R/27L 1985 49 ASP Yes/Yes
05L/23R 2028 49 ASP Yes/Yes
14/32 2107 49 ASP Yes/Yes
09L/27R 2223 49 ASP Yes/Yes
05R/23L 2294 46 ASP Yes/Yes

Airport map

Aerial View

Airport accidents

SKYbrary Partners:

Safety knowledge contributed by: